Time;durP1;ratioP1;P1;durP2;ratioP2;P2;SDS_P1;SDS_P2;PMS_P1;PMS_P2;Temp;Humidity;BMP_temperature;BMP_pressure;BME280_temperature;BME280_humidity;BME280_pressure;Samples;Min_cycle;Max_cycle;Signal;HPM_P1;HPM_P2
2023/09/07 00:00:16;;;;;;;;;;;;;;;18.92;61.96;98441.53;5045632;28;19925;-66
2023/09/07 00:02:45;;;;;;;;;;;;;;;18.86;62.26;98428.41;5053338;28;19975;-65
2023/09/07 00:05:14;;;;;;;;;;;;;;;18.89;62.03;98428.47;5054416;28;19974;-66
2023/09/07 00:07:41;;;;;;;;;;;;;;;18.82;62.46;98426.34;5052054;28;20309;-66
2023/09/07 00:10:10;;;;;;;;;;;;;;;18.86;62.47;98426.44;5053491;28;19924;-66
2023/09/07 00:12:39;;;;;;;;;;;;;;;18.59;63.04;98419.78;5051171;28;19925;-66
2023/09/07 00:15:08;;;;;;;;;;;;;;;18.58;62.90;98420.91;5045407;28;19966;-66
2023/09/07 00:17:36;;;;;;;;;;;;;;;18.67;62.94;98421.56;5051365;28;20555;-66
2023/09/07 00:20:10;;;;;;;;;;;;;;;18.65;62.98;98421.13;5054068;28;20290;-65
2023/09/07 00:22:38;;;;;;;;;;;;;;;18.61;62.75;98417.47;5053563;28;19981;-65
2023/09/07 00:25:07;;;;;;;;;;;;;;;18.72;62.24;98420.53;5054166;28;19932;-65
2023/09/07 00:27:34;;;;;;;;;;;;;;;18.69;62.25;98421.25;5050674;28;20042;-66
2023/09/07 00:30:04;;;;;;;;;;;;;;;18.68;62.33;98420.44;5041098;28;19928;-66
2023/09/07 00:32:33;;;;;;;;;;;;;;;18.68;62.43;98423.19;5052794;28;19932;-66
2023/09/07 00:35:00;;;;;;;;;;;;;;;18.65;62.53;98420.34;5044810;28;19933;-65
2023/09/07 00:37:29;;;;;;;;;;;;;;;18.57;62.64;98420.13;5053575;28;19963;-66
2023/09/07 00:39:58;;;;;;;;;;;;;;;18.52;62.97;98422.31;5050383;28;20477;-66
2023/09/07 00:42:25;;;;;;;;;;;;;;;18.64;62.39;98425.00;5049412;28;20386;-66
2023/09/07 00:44:55;;;;;;;;;;;;;;;18.64;62.32;98422.25;5052234;28;19959;-66
2023/09/07 00:47:23;;;;;;;;;;;;;;;18.54;62.82;98420.03;5049993;28;19971;-66
2023/09/07 00:49:51;;;;;;;;;;;;;;;18.54;62.92;98422.78;5034413;28;19936;-66
2023/09/07 00:52:19;;;;;;;;;;;;;;;18.54;62.90;98420.03;5046070;28;19925;-65
2023/09/07 00:54:48;;;;;;;;;;;;;;;18.44;63.18;98417.78;5049112;28;20314;-66
2023/09/07 00:57:16;;;;;;;;;;;;;;;18.45;63.19;98417.44;5056957;28;19933;-66
2023/09/07 00:59:43;;;;;;;;;;;;;;;18.48;63.18;98421.41;5028874;28;20011;-66
2023/09/07 01:02:11;;;;;;;;;;;;;;;18.42;63.09;98420.88;5052532;28;20396;-66
2023/09/07 01:04:39;;;;;;;;;;;;;;;18.46;63.11;98413.53;5038262;28;19936;-66
2023/09/07 01:07:08;;;;;;;;;;;;;;;18.33;63.52;98423.78;5037629;28;20343;-65
2023/09/07 01:09:37;;;;;;;;;;;;;;;18.42;63.31;98406.31;5034121;28;20418;-66
2023/09/07 01:12:10;;;;;;;;;;;;;;;18.42;63.11;98412.63;5055309;28;20398;-65
2023/09/07 01:14:38;;;;;;;;;;;;;;;18.34;63.74;98399.84;5034939;28;20367;-66
2023/09/07 01:17:06;;;;;;;;;;;;;;;18.39;63.31;98404.28;5044693;28;19929;-66
2023/09/07 01:19:33;;;;;;;;;;;;;;;18.41;63.42;98404.72;5060086;28;19978;-66
2023/09/07 01:22:03;;;;;;;;;;;;;;;18.44;62.84;98402.09;5041553;28;19928;-66
2023/09/07 01:24:31;;;;;;;;;;;;;;;18.45;63.05;98395.44;5032237;28;19925;-66
2023/09/07 01:26:58;;;;;;;;;;;;;;;18.40;63.07;98397.63;5052039;28;19933;-66
2023/09/07 01:29:29;;;;;;;;;;;;;;;18.34;63.29;98394.34;5035631;28;20445;-65
2023/09/07 01:31:56;;;;;;;;;;;;;;;18.35;63.38;98390.44;5027206;28;19929;-66
2023/09/07 01:34:25;;;;;;;;;;;;;;;18.21;63.60;98395.53;5056729;28;19925;-66
2023/09/07 01:36:54;;;;;;;;;;;;;;;18.21;63.64;98395.53;5031610;28;19928;-66
2023/09/07 01:39:23;;;;;;;;;;;;;;;18.20;63.75;98399.44;5052192;28;19968;-66
2023/09/07 01:41:51;;;;;;;;;;;;;;;18.18;64.14;98402.53;5028458;28;19933;-65
2023/09/07 01:44:19;;;;;;;;;;;;;;;18.13;64.11;98396.47;5033077;28;19929;-66
2023/09/07 01:46:47;;;;;;;;;;;;;;;17.94;64.72;98397.91;5058522;28;19929;-66
2023/09/07 01:49:14;;;;;;;;;;;;;;;18.09;64.15;98396.38;5030489;28;19929;-66
2023/09/07 01:51:42;;;;;;;;;;;;;;;18.11;64.05;98399.59;5046690;28;19931;-66
2023/09/07 01:54:10;;;;;;;;;;;;;;;17.93;64.69;98403.75;5063100;28;19928;-66
2023/09/07 01:56:41;;;;;;;;;;;;;;;17.83;64.60;98401.47;5030225;28;20270;-65
2023/09/07 01:59:09;;;;;;;;;;;;;;;17.93;64.53;98390.00;5026875;28;19971;-66
2023/09/07 02:01:38;;;;;;;;;;;;;;;17.84;64.97;98389.34;5023788;28;19925;-66
2023/09/07 02:04:07;;;;;;;;;;;;;;;17.81;65.10;98390.84;5029416;28;20432;-66
2023/09/07 02:06:34;;;;;;;;;;;;;;;17.89;64.96;98389.09;5026699;28;19935;-68
2023/09/07 02:09:06;;;;;;;;;;;;;;;17.72;65.24;98392.88;5034697;28;19932;-66
2023/09/07 02:11:34;;;;;;;;;;;;;;;17.77;65.09;98390.72;5027444;28;20029;-66
2023/09/07 02:14:03;;;;;;;;;;;;;;;17.82;65.06;98395.19;5031593;28;19928;-66
2023/09/07 02:16:31;;;;;;;;;;;;;;;17.79;65.11;98395.91;5060390;28;19951;-66
2023/09/07 02:19:04;;;;;;;;;;;;;;;17.59;66.02;98405.84;5025096;28;19925;-65
2023/09/07 02:21:32;;;;;;;;;;;;;;;17.64;65.56;98405.63;5032862;28;19935;-66
2023/09/07 02:23:59;;;;;;;;;;;;;;;17.75;65.12;98404.03;5031264;28;19929;-66
2023/09/07 02:26:27;;;;;;;;;;;;;;;17.65;65.52;98407.22;5050070;28;19931;-65
2023/09/07 02:28:55;;;;;;;;;;;;;;;17.69;65.26;98399.09;5030919;28;19929;-66
2023/09/07 02:31:25;;;;;;;;;;;;;;;17.59;65.62;98403.09;5025929;28;19924;-66
2023/09/07 02:33:57;;;;;;;;;;;;;;;17.51;65.90;98413.06;5038440;28;19986;-66
2023/09/07 02:36:25;;;;;;;;;;;;;;;17.57;65.75;98413.63;5030638;28;19932;-66
2023/09/07 02:38:53;;;;;;;;;;;;;;;17.45;66.15;98410.91;5027323;28;19956;-66
2023/09/07 02:41:21;;;;;;;;;;;;;;;17.54;66.10;98409.63;5020386;28;19925;-66
2023/09/07 02:43:48;;;;;;;;;;;;;;;17.60;65.72;98403.91;5032985;28;20286;-66
2023/09/07 02:46:16;;;;;;;;;;;;;;;17.49;66.13;98409.06;5017065;28;20397;-66
2023/09/07 02:48:48;;;;;;;;;;;;;;;17.43;66.37;98410.44;5067333;28;20394;-66
2023/09/07 02:51:17;;;;;;;;;;;;;;;17.52;65.67;98408.34;5050408;28;20437;-66
2023/09/07 02:53:45;;;;;;;;;;;;;;;17.42;65.94;98404.16;5034483;28;19935;-66
2023/09/07 02:56:13;;;;;;;;;;;;;;;17.54;65.59;98411.59;5060570;28;19925;-66
2023/09/07 02:58:41;;;;;;;;;;;;;;;17.61;65.18;98411.00;5027072;28;19925;-66
2023/09/07 03:01:09;;;;;;;;;;;;;;;17.58;65.17;98415.25;5031714;28;19932;-65
2023/09/07 03:03:37;;;;;;;;;;;;;;;17.45;65.67;98411.69;5053102;28;19932;-66
2023/09/07 03:06:12;;;;;;;;;;;;;;;17.39;65.90;98412.28;5037473;28;20273;-66
2023/09/07 03:08:42;;;;;;;;;;;;;;;17.41;65.85;98418.22;5053924;28;19932;-66
2023/09/07 03:11:10;;;;;;;;;;;;;;;17.39;65.72;98415.81;5032495;28;19925;-66
2023/09/07 03:13:38;;;;;;;;;;;;;;;17.40;65.74;98419.38;5062208;28;20311;-66
2023/09/07 03:16:06;;;;;;;;;;;;;;;17.41;65.53;98413.50;5047498;28;19952;-66
2023/09/07 03:18:34;;;;;;;;;;;;;;;17.29;65.96;98408.84;5060731;28;19925;-66
2023/09/07 03:21:02;;;;;;;;;;;;;;;17.25;66.15;98412.59;5029125;28;20460;-66
2023/09/07 03:23:32;;;;;;;;;;;;;;;17.20;66.38;98407.34;5037132;28;20302;-66
2023/09/07 03:26:00;;;;;;;;;;;;;;;17.24;66.53;98411.81;5036521;28;19987;-67
2023/09/07 03:28:29;;;;;;;;;;;;;;;17.35;65.95;98405.84;5037137;28;20322;-66
2023/09/07 03:30:57;;;;;;;;;;;;;;;17.31;66.04;98408.50;5054241;28;19929;-67
2023/09/07 03:33:25;;;;;;;;;;;;;;;17.34;65.99;98401.53;5039690;28;19925;-67
2023/09/07 03:35:52;;;;;;;;;;;;;;;17.27;65.90;98402.09;5051689;28;19933;-67
2023/09/07 03:38:20;;;;;;;;;;;;;;;16.91;67.04;98411.09;5044790;28;20393;-67
2023/09/07 03:40:50;;;;;;;;;;;;;;;17.01;67.25;98408.72;5060053;28;20011;-66
2023/09/07 03:43:19;;;;;;;;;;;;;;;17.11;66.59;98409.41;5033351;28;19925;-66
2023/09/07 03:45:47;;;;;;;;;;;;;;;17.08;66.62;98405.41;5051474;28;19929;-66
2023/09/07 03:48:15;;;;;;;;;;;;;;;16.86;67.45;98406.63;5031077;28;19932;-66
2023/09/07 03:50:43;;;;;;;;;;;;;;;16.99;67.26;98410.19;5050774;28;19939;-66
2023/09/07 03:53:11;;;;;;;;;;;;;;;17.00;66.76;98420.84;5052978;28;19935;-66
2023/09/07 03:55:42;;;;;;;;;;;;;;;17.07;66.68;98411.22;5017017;28;19932;-66
2023/09/07 03:58:13;;;;;;;;;;;;;;;17.12;66.44;98417.28;5034312;28;19925;-66
2023/09/07 04:00:42;;;;;;;;;;;;;;;16.98;66.87;98416.81;5025962;28;19940;-66
2023/09/07 04:03:10;;;;;;;;;;;;;;;16.82;67.48;98413.13;5051459;28;19932;-66
2023/09/07 04:05:38;;;;;;;;;;;;;;;16.91;67.29;98419.34;5049454;28;19947;-67
2023/09/07 04:08:12;;;;;;;;;;;;;;;17.01;66.81;98416.16;5049215;28;19925;-66
2023/09/07 04:10:39;;;;;;;;;;;;;;;17.05;66.61;98408.84;5049426;28;20335;-66
2023/09/07 04:13:07;;;;;;;;;;;;;;;17.05;66.57;98411.59;5032469;28;20374;-66
2023/09/07 04:15:43;;;;;;;;;;;;;;;16.89;67.20;98411.44;5023679;28;19935;-66
2023/09/07 04:18:15;;;;;;;;;;;;;;;16.92;67.07;98407.19;5025339;28;20370;-66
2023/09/07 04:20:43;;;;;;;;;;;;;;;16.93;67.10;98408.81;5049091;28;19940;-66
2023/09/07 04:23:12;;;;;;;;;;;;;;;16.64;68.07;98404.25;5024806;28;20305;-66
2023/09/07 04:25:40;;;;;;;;;;;;;;;16.85;67.70;98409.72;5025672;28;19983;-66
2023/09/07 04:28:08;;;;;;;;;;;;;;;16.87;67.62;98412.91;5031351;28;19929;-66
2023/09/07 04:30:38;;;;;;;;;;;;;;;16.88;67.08;98409.81;5041246;28;19936;-66
2023/09/07 04:33:07;;;;;;;;;;;;;;;16.84;67.13;98416.34;5040775;28;19924;-66
2023/09/07 04:35:36;;;;;;;;;;;;;;;16.58;67.91;98409.16;5032965;28;19925;-66
2023/09/07 04:38:04;;;;;;;;;;;;;;;16.49;68.40;98419.41;5042971;28;20133;-66
2023/09/07 04:40:32;;;;;;;;;;;;;;;16.48;68.46;98417.81;5045499;28;19937;-66
2023/09/07 04:43:00;;;;;;;;;;;;;;;16.57;68.43;98424.03;5062819;28;19960;-66
2023/09/07 04:45:27;;;;;;;;;;;;;;;16.52;68.25;98428.94;5040522;28;20046;-66
2023/09/07 04:47:55;;;;;;;;;;;;;;;16.49;68.67;98420.22;5035915;28;19932;-66
2023/09/07 04:50:25;;;;;;;;;;;;;;;16.56;68.52;98430.63;5055740;28;20004;-65
2023/09/07 04:52:53;;;;;;;;;;;;;;;16.71;67.81;98427.28;5051655;28;19933;-67
2023/09/07 04:55:21;;;;;;;;;;;;;;;16.65;67.66;98436.84;5060234;28;20428;-66
2023/09/07 04:57:49;;;;;;;;;;;;;;;16.58;68.29;98435.81;5047716;28;19925;-66
2023/09/07 05:00:17;;;;;;;;;;;;;;;16.43;68.56;98432.53;5031857;28;20255;-67
2023/09/07 05:02:45;;;;;;;;;;;;;;;16.51;68.08;98430.84;5035552;28;20292;-66
2023/09/07 05:05:13;;;;;;;;;;;;;;;16.54;68.14;98432.91;5048029;28;19976;-65
2023/09/07 05:07:43;;;;;;;;;;;;;;;16.66;68.01;98426.66;5029402;28;20385;-66
2023/09/07 05:10:12;;;;;;;;;;;;;;;16.47;68.62;98440.91;5033263;28;19933;-65
2023/09/07 05:12:40;;;;;;;;;;;;;;;16.53;68.26;98438.75;5028556;28;20365;-65
2023/09/07 05:15:09;;;;;;;;;;;;;;;16.53;68.73;98441.50;5031606;28;19925;-65
2023/09/07 05:17:38;;;;;;;;;;;;;;;16.66;68.11;98446.66;5037856;28;19959;-65
2023/09/07 05:20:07;;;;;;;;;;;;;;;16.52;68.40;98442.63;5065146;28;19928;-66
2023/09/07 05:22:37;;;;;;;;;;;;;;;16.62;68.07;98443.03;5061271;28;20271;-66
2023/09/07 05:25:08;;;;;;;;;;;;;;;16.62;68.27;98448.50;5032771;28;19948;-66
2023/09/07 05:27:36;;;;;;;;;;;;;;;16.39;68.83;98448.06;5030962;28;19929;-65
2023/09/07 05:30:05;;;;;;;;;;;;;;;16.31;69.64;98446.22;5030337;28;19968;-65
2023/09/07 05:32:33;;;;;;;;;;;;;;;16.43;69.33;98449.00;5047082;28;20276;-65
2023/09/07 05:35:01;;;;;;;;;;;;;;;16.39;68.83;98450.78;5057978;28;19925;-66
2023/09/07 05:37:29;;;;;;;;;;;;;;;16.36;68.87;98461.66;5035627;28;19940;-65
2023/09/07 05:39:56;;;;;;;;;;;;;;;16.35;69.00;98460.03;5025929;28;19929;-66
2023/09/07 05:42:26;;;;;;;;;;;;;;;16.44;68.77;98458.03;5024303;28;20397;-66
2023/09/07 05:44:54;;;;;;;;;;;;;;;16.39;68.79;98460.97;5046619;28;19932;-66
2023/09/07 05:47:22;;;;;;;;;;;;;;;16.54;68.88;98462.28;5050964;28;19940;-66
2023/09/07 05:49:50;;;;;;;;;;;;;;;16.59;68.66;98462.88;5032878;28;19925;-67
2023/09/07 05:52:18;;;;;;;;;;;;;;;16.61;69.15;98457.84;5049418;28;19940;-65
2023/09/07 05:54:46;;;;;;;;;;;;;;;16.60;68.80;98456.25;5040872;28;20002;-66
2023/09/07 05:57:14;;;;;;;;;;;;;;;16.68;68.69;98458.13;5024720;28;20467;-67
2023/09/07 05:59:43;;;;;;;;;;;;;;;16.67;68.23;98456.53;5048763;28;19925;-66
2023/09/07 06:02:10;;;;;;;;;;;;;;;16.82;68.02;98455.09;5049010;28;19925;-66
2023/09/07 06:04:38;;;;;;;;;;;;;;;16.88;67.28;98463.91;5026818;28;19929;-66
2023/09/07 06:07:07;;;;;;;;;;;;;;;16.95;67.46;98461.44;5023082;28;19929;-66
2023/09/07 06:09:35;;;;;;;;;;;;;;;17.02;67.13;98461.66;5049901;28;20355;-66
2023/09/07 06:12:03;;;;;;;;;;;;;;;16.95;67.35;98459.47;5024817;28;19940;-65
2023/09/07 06:14:31;;;;;;;;;;;;;;;16.97;67.81;98461.88;5029396;28;19986;-66
2023/09/07 06:17:01;;;;;;;;;;;;;;;17.01;67.76;98458.13;5026898;28;19933;-65
2023/09/07 06:19:28;;;;;;;;;;;;;;;17.06;67.41;98461.78;5032606;28;19933;-66
2023/09/07 06:21:56;;;;;;;;;;;;;;;17.13;66.91;98468.31;5030345;28;19994;-66
2023/09/07 06:24:24;;;;;;;;;;;;;;;17.13;66.63;98465.56;5058506;28;19929;-66
2023/09/07 06:26:52;;;;;;;;;;;;;;;17.24;66.58;98463.97;5035656;28;19924;-66
2023/09/07 06:29:19;;;;;;;;;;;;;;;17.23;66.47;98467.06;5058053;28;19957;-66
2023/09/07 06:31:49;;;;;;;;;;;;;;;17.25;66.61;98462.03;5030074;28;20015;-65
2023/09/07 06:34:23;;;;;;;;;;;;;;;17.37;66.76;98461.25;5027159;28;19935;-66
2023/09/07 06:36:51;;;;;;;;;;;;;;;17.40;66.18;98460.56;5032308;28;20286;-65
2023/09/07 06:39:20;;;;;;;;;;;;;;;17.47;66.13;98461.63;5048028;28;19972;-66
2023/09/07 06:41:48;;;;;;;;;;;;;;;17.56;66.05;98466.97;5050048;28;19925;-66
2023/09/07 06:44:20;;;;;;;;;;;;;;;17.57;66.16;98468.56;5028505;28;19925;-66
2023/09/07 06:46:50;;;;;;;;;;;;;;;17.61;65.81;98469.50;5023026;28;19925;-66
2023/09/07 06:49:19;;;;;;;;;;;;;;;17.70;65.50;98475.69;5045057;28;20323;-66
2023/09/07 06:51:48;;;;;;;;;;;;;;;17.73;66.13;98479.69;5047395;28;19929;-66
2023/09/07 06:54:16;;;;;;;;;;;;;;;17.84;65.12;98480.03;5028973;28;19932;-66
2023/09/07 06:56:44;;;;;;;;;;;;;;;17.94;65.48;98476.81;5054567;28;19925;-67
2023/09/07 06:59:11;;;;;;;;;;;;;;;17.93;64.59;98477.97;5032574;28;19925;-66
2023/09/07 07:01:39;;;;;;;;;;;;;;;17.96;64.94;98474.53;5049713;28;19933;-65
2023/09/07 07:04:07;;;;;;;;;;;;;;;17.99;64.93;98465.59;5058575;28;20324;-67
2023/09/07 07:06:35;;;;;;;;;;;;;;;18.03;64.87;98477.50;5037919;28;19925;-66
2023/09/07 07:09:05;;;;;;;;;;;;;;;18.06;64.69;98463.06;5064041;28;20400;-66
2023/09/07 07:11:32;;;;;;;;;;;;;;;18.08;65.22;98465.47;5053968;28;20402;-66
2023/09/07 07:14:00;;;;;;;;;;;;;;;18.16;64.45;98461.75;5032677;28;19929;-66
2023/09/07 07:16:28;;;;;;;;;;;;;;;18.26;64.72;98469.53;5037316;28;19963;-66
2023/09/07 07:18:56;;;;;;;;;;;;;;;18.33;64.95;98465.06;5049411;28;19998;-66
2023/09/07 07:21:24;;;;;;;;;;;;;;;18.42;64.51;98461.34;5025127;28;19947;-66
2023/09/07 07:23:52;;;;;;;;;;;;;;;18.50;64.25;98466.72;5037076;28;19978;-67
2023/09/07 07:26:22;;;;;;;;;;;;;;;18.54;64.50;98470.38;5029927;28;19929;-66
2023/09/07 07:28:50;;;;;;;;;;;;;;;18.62;63.87;98465.06;5041502;28;19925;-67
2023/09/07 07:31:18;;;;;;;;;;;;;;;18.70;63.02;98472.41;5027414;28;19929;-67
2023/09/07 07:33:47;;;;;;;;;;;;;;;18.75;62.80;98464.69;5032799;28;20389;-65
2023/09/07 07:36:15;;;;;;;;;;;;;;;18.77;62.41;98462.38;5018262;28;19932;-66
2023/09/07 07:38:43;;;;;;;;;;;;;;;18.84;62.74;98467.25;5065527;28;19932;-67
2023/09/07 07:41:11;;;;;;;;;;;;;;;18.92;63.34;98471.03;5014442;28;19925;-67
2023/09/07 07:43:40;;;;;;;;;;;;;;;19.00;62.81;98467.28;5013754;28;19925;-66
2023/09/07 07:46:09;;;;;;;;;;;;;;;19.09;62.34;98467.94;5033441;28;20378;-66
2023/09/07 07:48:37;;;;;;;;;;;;;;;19.16;61.75;98462.59;5024708;28;19925;-66
2023/09/07 07:51:05;;;;;;;;;;;;;;;19.22;61.60;98466.69;5027850;28;19933;-66
2023/09/07 07:53:37;;;;;;;;;;;;;;;19.33;61.32;98456.75;5029988;28;19925;-66
2023/09/07 07:56:05;;;;;;;;;;;;;;;19.39;60.43;98451.78;5031558;28;19925;-66
2023/09/07 07:58:33;;;;;;;;;;;;;;;19.44;60.43;98461.72;5047950;28;20374;-66
2023/09/07 08:01:03;;;;;;;;;;;;;;;19.51;60.07;98461.91;5056040;28;19936;-66
2023/09/07 08:03:32;;;;;;;;;;;;;;;19.55;60.11;98457.28;5040687;28;19968;-66
2023/09/07 08:06:01;;;;;;;;;;;;;;;19.65;59.75;98461.47;5027493;28;20420;-67
2023/09/07 08:08:29;;;;;;;;;;;;;;;19.71;59.01;98466.38;5027087;28;19925;-66
2023/09/07 08:10:59;;;;;;;;;;;;;;;19.76;58.76;98463.34;5052130;28;20382;-66
2023/09/07 08:13:28;;;;;;;;;;;;;;;19.81;59.61;98468.53;5052859;28;19940;-66
2023/09/07 08:15:58;;;;;;;;;;;;;;;19.86;58.14;98464.72;5032774;28;19929;-66
2023/09/07 08:18:27;;;;;;;;;;;;;;;19.95;58.79;98467.28;5029996;28;19955;-66
2023/09/07 08:20:55;;;;;;;;;;;;;;;20.01;59.48;98466.63;5057250;28;19928;-66
2023/09/07 08:23:25;;;;;;;;;;;;;;;20.07;58.99;98469.91;5029421;28;20392;-66
2023/09/07 08:25:54;;;;;;;;;;;;;;;20.13;57.38;98465.72;5025634;28;20019;-67
2023/09/07 08:28:25;;;;;;;;;;;;;;;20.19;57.60;98469.81;5026823;28;20005;-66
2023/09/07 08:30:54;;;;;;;;;;;;;;;20.24;58.47;98465.94;5053032;28;19963;-67
2023/09/07 08:33:28;;;;;;;;;;;;;;;20.30;57.83;98468.06;5053446;28;19929;-66
2023/09/07 08:35:59;;;;;;;;;;;;;;;20.37;57.12;98470.16;5044091;28;20011;-66
2023/09/07 08:38:27;;;;;;;;;;;;;;;20.39;56.46;98460.34;5052982;28;19932;-67
2023/09/07 08:40:56;;;;;;;;;;;;;;;20.47;56.59;98463.31;5052144;28;19933;-66
2023/09/07 08:43:24;;;;;;;;;;;;;;;20.55;57.19;98462.28;5053078;28;19925;-67
2023/09/07 08:45:53;;;;;;;;;;;;;;;20.60;56.91;98468.31;5051374;28;19929;-67
2023/09/07 08:48:21;;;;;;;;;;;;;;;20.70;56.35;98460.59;5068626;28;19948;-66
2023/09/07 08:50:52;;;;;;;;;;;;;;;20.74;56.37;98465.03;5053550;28;20468;-67
2023/09/07 08:53:21;;;;;;;;;;;;;;;20.82;56.62;98469.50;5055122;28;19929;-66
2023/09/07 08:55:48;;;;;;;;;;;;;;;20.85;56.87;98471.56;5034682;28;19970;-66
2023/09/07 08:58:16;;;;;;;;;;;;;;;20.87;55.67;98463.69;5075071;28;19935;-67
2023/09/07 09:00:45;;;;;;;;;;;;;;;20.90;54.74;98471.25;5066625;28;20099;-66
2023/09/07 09:03:13;;;;;;;;;;;;;;;20.98;55.71;98471.38;5059961;28;19924;-67
2023/09/07 09:05:41;;;;;;;;;;;;;;;21.00;54.88;98458.81;5056128;28;19983;-67
2023/09/07 09:08:09;;;;;;;;;;;;;;;21.11;54.37;98467.28;5044189;28;19976;-66
2023/09/07 09:10:41;;;;;;;;;;;;;;;21.18;53.82;98459.91;5054625;28;19937;-66
2023/09/07 09:13:11;;;;;;;;;;;;;;;21.13;54.21;98467.72;5051826;28;19936;-66
2023/09/07 09:15:38;;;;;;;;;;;;;;;21.21;54.71;98465.91;5040667;28;19929;-66
2023/09/07 09:18:10;;;;;;;;;;;;;;;21.31;52.82;98463.34;5048383;28;19931;-66
2023/09/07 09:20:38;;;;;;;;;;;;;;;21.30;53.68;98461.72;5045404;28;19955;-66
2023/09/07 09:23:07;;;;;;;;;;;;;;;21.41;53.80;98461.91;5042332;28;19936;-66
2023/09/07 09:25:35;;;;;;;;;;;;;;;21.43;53.91;98468.69;5035805;28;19929;-66
2023/09/07 09:28:05;;;;;;;;;;;;;;;21.55;54.88;98461.34;5049722;28;20413;-67
2023/09/07 09:30:33;;;;;;;;;;;;;;;21.56;53.79;98462.94;5043475;28;19925;-68
2023/09/07 09:33:02;;;;;;;;;;;;;;;21.62;54.39;98467.00;5045673;28;19925;-67
2023/09/07 09:35:31;;;;;;;;;;;;;;;21.60;55.24;98456.31;5049380;28;19925;-67
2023/09/07 09:38:04;;;;;;;;;;;;;;;21.64;54.60;98453.59;5046334;28;19985;-67
2023/09/07 09:40:31;;;;;;;;;;;;;;;21.67;53.88;98452.84;5046174;28;20455;-67
2023/09/07 09:42:59;;;;;;;;;;;;;;;21.72;53.43;98447.00;5047392;28;19929;-68
2023/09/07 09:45:28;;;;;;;;;;;;;;;21.79;52.14;98449.09;5039384;28;19925;-67
2023/09/07 09:47:56;;;;;;;;;;;;;;;21.79;51.82;98449.09;5045871;28;19925;-67
2023/09/07 09:50:24;;;;;;;;;;;;;;;21.88;51.17;98446.84;5054208;28;19932;-66
2023/09/07 09:52:53;;;;;;;;;;;;;;;21.90;52.12;98450.84;5043766;28;20167;-67
2023/09/07 09:55:20;;;;;;;;;;;;;;;21.96;50.77;98448.56;5041384;28;19933;-66
2023/09/07 09:57:49;;;;;;;;;;;;;;;22.02;50.79;98451.78;5046321;28;19940;-66
2023/09/07 10:00:25;;;;;;;;;;;;;;;22.07;52.13;98437.63;5050821;28;19928;-66
2023/09/07 10:02:59;;;;;;;;;;;;;;;22.09;52.02;98443.56;5046395;28;19932;-67
2023/09/07 10:05:28;;;;;;;;;;;;;;;22.23;50.27;98441.03;5038674;28;19924;-67
2023/09/07 10:08:01;;;;;;;;;;;;;;;22.42;49.42;98438.09;5051355;28;19924;-67
2023/09/07 10:10:35;;;;;;;;;;;;;;;22.30;50.28;98435.59;5049096;28;21286;-67
2023/09/07 10:13:04;;;;;;;;;;;;;;;22.28;50.78;98432.41;5050297;28;19932;-66
2023/09/07 10:15:32;;;;;;;;;;;;;;;22.40;50.22;98431.34;5047727;28;20345;-68
2023/09/07 10:18:05;;;;;;;;;;;;;;;22.36;49.79;98423.00;5051185;28;20531;-67
2023/09/07 10:20:49;;;;;;;;;;;;;;;22.50;49.44;98422.38;5049707;28;19931;-67
2023/09/07 10:23:17;;;;;;;;;;;;;;;22.56;49.49;98428.38;5047977;28;19925;-65
2023/09/07 10:25:48;;;;;;;;;;;;;;;22.56;49.76;98420.88;5043957;28;20413;-67
2023/09/07 10:28:21;;;;;;;;;;;;;;;22.62;49.60;98424.09;5048324;28;19987;-67
2023/09/07 10:31:03;;;;;;;;;;;;;;;22.70;48.23;98414.69;5046333;28;20390;-66
2023/09/07 10:33:32;;;;;;;;;;;;;;;22.68;47.40;98419.81;5046162;28;19933;-66
2023/09/07 10:36:01;;;;;;;;;;;;;;;22.85;46.87;98416.44;5052450;28;19936;-67
2023/09/07 10:38:29;;;;;;;;;;;;;;;22.87;46.63;98418.81;5048493;28;20022;-67
2023/09/07 10:40:58;;;;;;;;;;;;;;;22.83;47.41;98413.25;5066117;28;19932;-67
2023/09/07 10:43:26;;;;;;;;;;;;;;;22.83;47.23;98410.47;5049088;28;19932;-67
2023/09/07 10:45:54;;;;;;;;;;;;;;;22.83;46.15;98401.38;5048152;28;19966;-67
2023/09/07 10:48:21;;;;;;;;;;;;;;;22.91;45.90;98406.63;5033093;28;19929;-67
2023/09/07 10:50:51;;;;;;;;;;;;;;;23.07;45.54;98395.31;5049383;28;19989;-66
2023/09/07 10:53:27;;;;;;;;;;;;;;;23.05;46.02;98407.94;5053332;28;20358;-67
2023/09/07 10:55:55;;;;;;;;;;;;;;;23.17;46.35;98396.56;5044749;28;20562;-66
2023/09/07 10:58:27;;;;;;;;;;;;;;;23.07;44.79;98395.31;5050236;28;19979;-66
2023/09/07 11:00:57;;;;;;;;;;;;;;;23.09;44.57;98397.69;5048475;28;19929;-66
2023/09/07 11:03:28;;;;;;;;;;;;;;;23.03;44.84;98394.47;5058601;28;21285;-67
2023/09/07 11:05:57;;;;;;;;;;;;;;;23.05;45.22;98391.31;5035286;28;19929;-67
2023/09/07 11:08:28;;;;;;;;;;;;;;;23.06;46.25;98388.16;5045829;28;19963;-67
2023/09/07 11:10:56;;;;;;;;;;;;;;;23.08;45.30;98385.00;5047938;28;20400;-67
2023/09/07 11:13:24;;;;;;;;;;;;;;;23.08;45.00;98385.81;5039999;28;19971;-66
2023/09/07 11:15:54;;;;;;;;;;;;;;;23.11;44.76;98389.78;5043959;28;20428;-67
2023/09/07 11:18:22;;;;;;;;;;;;;;;23.17;44.12;98377.16;5058914;28;19935;-66
2023/09/07 11:20:50;;;;;;;;;;;;;;;23.21;45.18;98383.53;5049080;28;20411;-67
2023/09/07 11:23:19;;;;;;;;;;;;;;;23.31;43.88;98382.81;5046469;28;20336;-67
2023/09/07 11:25:48;;;;;;;;;;;;;;;23.25;44.05;98381.59;5046621;28;19925;-68
2023/09/07 11:28:19;;;;;;;;;;;;;;;23.34;42.03;98370.97;5045410;28;20286;-67
2023/09/07 11:30:49;;;;;;;;;;;;;;;23.32;43.49;98375.28;5045991;28;19942;-67
2023/09/07 11:33:18;;;;;;;;;;;;;;;23.31;42.45;98371.72;5036638;28;20020;-66
2023/09/07 11:35:46;;;;;;;;;;;;;;;23.53;42.01;98373.47;5057463;28;19932;-67
2023/09/07 11:38:15;;;;;;;;;;;;;;;23.43;43.49;98379.72;5050437;28;19931;-67
2023/09/07 11:40:45;;;;;;;;;;;;;;;23.41;44.19;98376.56;5044380;28;20023;-67
2023/09/07 11:43:13;;;;;;;;;;;;;;;23.50;43.42;98379.81;5036678;28;19947;-66
2023/09/07 11:45:41;;;;;;;;;;;;;;;23.57;42.33;98381.03;5045540;28;19929;-67
2023/09/07 11:48:09;;;;;;;;;;;;;;;23.70;41.73;98383.13;5055927;28;20281;-67
2023/09/07 11:50:38;;;;;;;;;;;;;;;23.77;41.36;98382.38;5053611;28;20352;-67
2023/09/07 11:53:06;;;;;;;;;;;;;;;23.84;41.22;98376.84;5054528;28;19924;-67
2023/09/07 11:55:33;;;;;;;;;;;;;;;23.83;41.17;98372.50;5047310;28;19929;-67
2023/09/07 11:58:03;;;;;;;;;;;;;;;23.89;41.22;98379.25;5044824;28;19948;-67
2023/09/07 12:00:31;;;;;;;;;;;;;;;24.08;40.64;98380.16;5042565;28;20449;-67
2023/09/07 12:02:59;;;;;;;;;;;;;;;24.00;41.44;98377.34;5046371;28;19924;-67
2023/09/07 12:05:27;;;;;;;;;;;;;;;24.00;40.52;98377.34;5046237;28;19996;-67
2023/09/07 12:07:55;;;;;;;;;;;;;;;24.02;42.00;98375.00;5040653;28;19974;-66
2023/09/07 12:10:24;;;;;;;;;;;;;;;23.93;42.25;98368.97;5049784;28;20362;-67
2023/09/07 12:12:52;;;;;;;;;;;;;;;23.87;42.36;98365.00;5047758;28;19931;-65
2023/09/07 12:15:21;;;;;;;;;;;;;;;24.05;41.00;98354.75;5045078;28;19925;-66
2023/09/07 12:17:54;;;;;;;;;;;;;;;24.09;40.12;98352.00;5040448;28;19925;-67
2023/09/07 12:20:21;;;;;;;;;;;;;;;24.07;41.60;98356.34;5044619;28;20278;-67
2023/09/07 12:22:49;;;;;;;;;;;;;;;23.95;42.80;98358.28;5026211;28;19925;-67
2023/09/07 12:25:17;;;;;;;;;;;;;;;23.87;43.17;98359.44;5045994;28;20386;-67
2023/09/07 12:27:46;;;;;;;;;;;;;;;24.12;41.59;98353.19;5048598;28;19939;-67
2023/09/07 12:30:20;;;;;;;;;;;;;;;24.38;39.57;98350.16;5043537;28;19940;-65
2023/09/07 12:32:50;;;;;;;;;;;;;;;24.40;39.06;98349.78;5044012;28;19928;-66
2023/09/07 12:35:19;;;;;;;;;;;;;;;24.45;38.77;98349.34;5042844;28;19925;-65
2023/09/07 12:37:47;;;;;;;;;;;;;;;24.42;39.71;98353.72;5053819;28;20397;-66
2023/09/07 12:40:15;;;;;;;;;;;;;;;24.75;39.42;98351.81;5041673;28;19970;-67
2023/09/07 12:42:44;;;;;;;;;;;;;;;24.61;40.12;98340.66;5030507;28;19933;-67
2023/09/07 12:45:14;;;;;;;;;;;;;;;24.45;41.06;98344.63;5050149;28;19931;-66
2023/09/07 12:47:41;;;;;;;;;;;;;;;24.37;41.65;98343.00;5048224;28;19931;-67
2023/09/07 12:50:10;;;;;;;;;;;;;;;24.42;40.73;98337.06;5053044;28;19978;-67
2023/09/07 12:52:38;;;;;;;;;;;;;;;24.58;41.54;98333.13;5050500;28;19933;-67
2023/09/07 12:55:07;;;;;;;;;;;;;;;24.74;40.54;98336.34;5039838;28;19929;-67